sensor_id;sensor_type;location;lat;lon;timestamp;P1;durP1;ratioP1;P2;durP2;ratioP2
39948;SDS011;29070;48.102;-1.652;2022-11-20T00:04:42;10.15;;;4.43;;
39948;SDS011;29070;48.102;-1.652;2022-11-20T00:09:43;10.17;;;4.43;;
39948;SDS011;29070;48.102;-1.652;2022-11-20T00:14:43;9.03;;;4.00;;
39948;SDS011;29070;48.102;-1.652;2022-11-20T00:19:43;12.30;;;3.57;;
39948;SDS011;29070;48.102;-1.652;2022-11-20T00:24:44;12.57;;;4.03;;
39948;SDS011;29070;48.102;-1.652;2022-11-20T00:29:44;9.43;;;3.20;;
39948;SDS011;29070;48.102;-1.652;2022-11-20T00:34:44;6.93;;;2.83;;
39948;SDS011;29070;48.102;-1.652;2022-11-20T00:39:45;7.77;;;2.97;;
39948;SDS011;29070;48.102;-1.652;2022-11-20T00:44:45;7.67;;;2.97;;
39948;SDS011;29070;48.102;-1.652;2022-11-20T00:49:45;7.97;;;3.60;;
39948;SDS011;29070;48.102;-1.652;2022-11-20T00:54:46;12.27;;;3.35;;
39948;SDS011;29070;48.102;-1.652;2022-11-20T00:59:46;8.53;;;3.20;;
39948;SDS011;29070;48.102;-1.652;2022-11-20T01:04:46;7.53;;;2.90;;
39948;SDS011;29070;48.102;-1.652;2022-11-20T01:09:47;7.10;;;2.37;;
39948;SDS011;29070;48.102;-1.652;2022-11-20T01:14:47;9.00;;;3.17;;
39948;SDS011;29070;48.102;-1.652;2022-11-20T01:19:48;11.98;;;3.30;;
39948;SDS011;29070;48.102;-1.652;2022-11-20T01:24:50;7.65;;;3.13;;
39948;SDS011;29070;48.102;-1.652;2022-11-20T01:29:50;6.83;;;3.03;;
39948;SDS011;29070;48.102;-1.652;2022-11-20T01:34:51;5.93;;;3.07;;
39948;SDS011;29070;48.102;-1.652;2022-11-20T01:39:51;4.97;;;2.83;;
39948;SDS011;29070;48.102;-1.652;2022-11-20T01:49:58;12.00;;;2.88;;
39948;SDS011;29070;48.102;-1.652;2022-11-20T01:55:10;5.47;;;2.13;;
39948;SDS011;29070;48.102;-1.652;2022-11-20T02:00:15;5.20;;;2.63;;
39948;SDS011;29070;48.102;-1.652;2022-11-20T02:05:32;6.82;;;2.40;;
39948;SDS011;29070;48.102;-1.652;2022-11-20T02:10:36;4.95;;;2.45;;
39948;SDS011;29070;48.102;-1.652;2022-11-20T02:15:37;7.68;;;2.10;;
39948;SDS011;29070;48.102;-1.652;2022-11-20T02:20:38;6.55;;;2.40;;
39948;SDS011;29070;48.102;-1.652;2022-11-20T02:25:40;5.32;;;2.13;;
39948;SDS011;29070;48.102;-1.652;2022-11-20T02:30:41;6.00;;;2.10;;
39948;SDS011;29070;48.102;-1.652;2022-11-20T02:35:44;3.97;;;2.30;;
39948;SDS011;29070;48.102;-1.652;2022-11-20T02:40:45;6.05;;;2.33;;
39948;SDS011;29070;48.102;-1.652;2022-11-20T02:45:46;3.70;;;1.90;;
39948;SDS011;29070;48.102;-1.652;2022-11-20T02:50:46;6.90;;;2.07;;
39948;SDS011;29070;48.102;-1.652;2022-11-20T02:55:46;3.97;;;1.93;;
39948;SDS011;29070;48.102;-1.652;2022-11-20T03:00:47;6.43;;;2.00;;
39948;SDS011;29070;48.102;-1.652;2022-11-20T03:05:47;6.60;;;2.67;;
39948;SDS011;29070;48.102;-1.652;2022-11-20T03:10:47;5.20;;;2.17;;
39948;SDS011;29070;48.102;-1.652;2022-11-20T03:15:48;7.23;;;2.30;;
39948;SDS011;29070;48.102;-1.652;2022-11-20T03:20:48;4.38;;;2.05;;
39948;SDS011;29070;48.102;-1.652;2022-11-20T03:25:49;7.23;;;2.33;;
39948;SDS011;29070;48.102;-1.652;2022-11-20T03:30:49;6.23;;;2.23;;
39948;SDS011;29070;48.102;-1.652;2022-11-20T03:35:49;5.80;;;2.43;;
39948;SDS011;29070;48.102;-1.652;2022-11-20T03:40:50;11.13;;;2.30;;
39948;SDS011;29070;48.102;-1.652;2022-11-20T03:45:50;4.27;;;1.73;;
39948;SDS011;29070;48.102;-1.652;2022-11-20T03:50:51;6.00;;;2.00;;
39948;SDS011;29070;48.102;-1.652;2022-11-20T03:55:53;6.32;;;2.45;;
39948;SDS011;29070;48.102;-1.652;2022-11-20T04:00:53;7.37;;;2.30;;
39948;SDS011;29070;48.102;-1.652;2022-11-20T04:05:54;5.03;;;2.23;;
39948;SDS011;29070;48.102;-1.652;2022-11-20T04:10:54;6.83;;;2.47;;
39948;SDS011;29070;48.102;-1.652;2022-11-20T04:15:56;7.43;;;2.70;;
39948;SDS011;29070;48.102;-1.652;2022-11-20T04:20:58;5.63;;;2.38;;
39948;SDS011;29070;48.102;-1.652;2022-11-20T04:26:02;8.02;;;2.88;;
39948;SDS011;29070;48.102;-1.652;2022-11-20T04:31:07;7.43;;;2.47;;
39948;SDS011;29070;48.102;-1.652;2022-11-20T04:36:16;6.82;;;2.63;;
39948;SDS011;29070;48.102;-1.652;2022-11-20T04:41:22;5.75;;;2.78;;
39948;SDS011;29070;48.102;-1.652;2022-11-20T04:46:25;9.40;;;2.80;;
39948;SDS011;29070;48.102;-1.652;2022-11-20T04:51:26;11.48;;;3.83;;
39948;SDS011;29070;48.102;-1.652;2022-11-20T04:56:27;6.97;;;3.22;;
39948;SDS011;29070;48.102;-1.652;2022-11-20T05:01:27;8.90;;;4.00;;
39948;SDS011;29070;48.102;-1.652;2022-11-20T05:06:28;8.20;;;3.53;;
39948;SDS011;29070;48.102;-1.652;2022-11-20T05:11:28;5.70;;;3.10;;
39948;SDS011;29070;48.102;-1.652;2022-11-20T05:16:29;7.40;;;3.60;;
39948;SDS011;29070;48.102;-1.652;2022-11-20T05:21:30;10.90;;;3.72;;
39948;SDS011;29070;48.102;-1.652;2022-11-20T05:26:31;6.68;;;3.50;;
39948;SDS011;29070;48.102;-1.652;2022-11-20T05:31:31;10.20;;;3.63;;
39948;SDS011;29070;48.102;-1.652;2022-11-20T05:36:32;9.65;;;3.88;;
39948;SDS011;29070;48.102;-1.652;2022-11-20T05:41:33;5.75;;;3.30;;
39948;SDS011;29070;48.102;-1.652;2022-11-20T05:46:33;6.68;;;3.08;;
39948;SDS011;29070;48.102;-1.652;2022-11-20T05:51:33;8.53;;;3.40;;
39948;SDS011;29070;48.102;-1.652;2022-11-20T05:56:34;10.30;;;3.17;;
39948;SDS011;29070;48.102;-1.652;2022-11-20T06:01:35;6.45;;;3.25;;
39948;SDS011;29070;48.102;-1.652;2022-11-20T06:06:36;6.80;;;2.50;;
39948;SDS011;29070;48.102;-1.652;2022-11-20T06:11:36;5.13;;;3.07;;
39948;SDS011;29070;48.102;-1.652;2022-11-20T06:16:36;6.77;;;2.70;;
39948;SDS011;29070;48.102;-1.652;2022-11-20T06:21:37;5.03;;;1.80;;
39948;SDS011;29070;48.102;-1.652;2022-11-20T06:26:37;3.67;;;1.70;;
39948;SDS011;29070;48.102;-1.652;2022-11-20T06:31:37;3.25;;;1.60;;
39948;SDS011;29070;48.102;-1.652;2022-11-20T06:36:38;3.03;;;1.58;;
39948;SDS011;29070;48.102;-1.652;2022-11-20T06:41:38;2.47;;;1.48;;
39948;SDS011;29070;48.102;-1.652;2022-11-20T06:46:38;3.27;;;1.70;;
39948;SDS011;29070;48.102;-1.652;2022-11-20T06:51:39;4.67;;;1.63;;
39948;SDS011;29070;48.102;-1.652;2022-11-20T06:56:40;2.80;;;1.40;;
39948;SDS011;29070;48.102;-1.652;2022-11-20T07:01:40;3.30;;;1.35;;
39948;SDS011;29070;48.102;-1.652;2022-11-20T07:06:40;3.63;;;1.27;;
39948;SDS011;29070;48.102;-1.652;2022-11-20T07:11:41;2.53;;;1.40;;
39948;SDS011;29070;48.102;-1.652;2022-11-20T07:16:41;2.67;;;1.37;;
39948;SDS011;29070;48.102;-1.652;2022-11-20T07:21:41;5.53;;;1.70;;
39948;SDS011;29070;48.102;-1.652;2022-11-20T07:26:42;3.17;;;1.60;;
39948;SDS011;29070;48.102;-1.652;2022-11-20T07:31:42;2.47;;;1.37;;
39948;SDS011;29070;48.102;-1.652;2022-11-20T07:36:43;3.70;;;1.88;;
39948;SDS011;29070;48.102;-1.652;2022-11-20T07:41:43;2.70;;;1.57;;
39948;SDS011;29070;48.102;-1.652;2022-11-20T07:46:43;4.70;;;1.90;;
39948;SDS011;29070;48.102;-1.652;2022-11-20T07:51:44;4.27;;;2.17;;
39948;SDS011;29070;48.102;-1.652;2022-11-20T07:56:44;2.80;;;1.87;;
39948;SDS011;29070;48.102;-1.652;2022-11-20T08:01:44;4.13;;;1.53;;
39948;SDS011;29070;48.102;-1.652;2022-11-20T08:06:45;3.93;;;2.13;;
39948;SDS011;29070;48.102;-1.652;2022-11-20T08:11:45;2.73;;;1.70;;
39948;SDS011;29070;48.102;-1.652;2022-11-20T08:17:04;3.95;;;2.10;;
39948;SDS011;29070;48.102;-1.652;2022-11-20T08:22:04;6.30;;;2.90;;
39948;SDS011;29070;48.102;-1.652;2022-11-20T08:27:05;4.53;;;2.50;;
39948;SDS011;29070;48.102;-1.652;2022-11-20T08:32:05;8.40;;;2.57;;
39948;SDS011;29070;48.102;-1.652;2022-11-20T08:37:05;8.97;;;2.10;;
39948;SDS011;29070;48.102;-1.652;2022-11-20T08:42:09;8.03;;;2.37;;
39948;SDS011;29070;48.102;-1.652;2022-11-20T08:47:09;12.32;;;2.58;;
39948;SDS011;29070;48.102;-1.652;2022-11-20T08:52:10;9.57;;;2.57;;
39948;SDS011;29070;48.102;-1.652;2022-11-20T08:57:10;12.17;;;2.30;;
39948;SDS011;29070;48.102;-1.652;2022-11-20T09:02:10;11.27;;;2.60;;
39948;SDS011;29070;48.102;-1.652;2022-11-20T09:07:11;12.50;;;2.38;;
39948;SDS011;29070;48.102;-1.652;2022-11-20T09:12:12;18.67;;;2.80;;
39948;SDS011;29070;48.102;-1.652;2022-11-20T09:17:12;15.60;;;2.17;;
39948;SDS011;29070;48.102;-1.652;2022-11-20T09:22:14;18.20;;;2.72;;
39948;SDS011;29070;48.102;-1.652;2022-11-20T09:27:15;8.95;;;2.42;;
39948;SDS011;29070;48.102;-1.652;2022-11-20T09:32:20;21.73;;;3.17;;
39948;SDS011;29070;48.102;-1.652;2022-11-20T09:37:20;12.97;;;1.93;;
39948;SDS011;29070;48.102;-1.652;2022-11-20T09:53:01;21.23;;;2.88;;
39948;SDS011;29070;48.102;-1.652;2022-11-20T09:58:24;22.75;;;3.22;;
39948;SDS011;29070;48.102;-1.652;2022-11-20T10:03:39;22.30;;;3.47;;
39948;SDS011;29070;48.102;-1.652;2022-11-20T10:08:49;25.98;;;3.55;;
39948;SDS011;29070;48.102;-1.652;2022-11-20T10:25:22;19.27;;;3.67;;
39948;SDS011;29070;48.102;-1.652;2022-11-20T10:30:19;34.15;;;3.85;;
39948;SDS011;29070;48.102;-1.652;2022-11-20T10:40:44;23.25;;;3.60;;
39948;SDS011;29070;48.102;-1.652;2022-11-20T10:45:49;16.83;;;3.30;;
39948;SDS011;29070;48.102;-1.652;2022-11-20T10:51:01;20.48;;;4.32;;
39948;SDS011;29070;48.102;-1.652;2022-11-20T10:56:33;18.20;;;3.47;;
39948;SDS011;29070;48.102;-1.652;2022-11-20T11:01:40;23.30;;;3.20;;
39948;SDS011;29070;48.102;-1.652;2022-11-20T11:06:46;27.98;;;3.83;;
39948;SDS011;29070;48.102;-1.652;2022-11-20T11:11:49;18.02;;;3.70;;
39948;SDS011;29070;48.102;-1.652;2022-11-20T11:21:53;17.95;;;3.95;;
39948;SDS011;29070;48.102;-1.652;2022-11-20T11:27:00;23.48;;;3.10;;
39948;SDS011;29070;48.102;-1.652;2022-11-20T11:37:06;19.98;;;2.63;;
39948;SDS011;29070;48.102;-1.652;2022-11-20T11:42:18;28.88;;;3.83;;
39948;SDS011;29070;48.102;-1.652;2022-11-20T11:58:14;17.17;;;3.15;;
39948;SDS011;29070;48.102;-1.652;2022-11-20T12:03:33;15.85;;;4.18;;
39948;SDS011;29070;48.102;-1.652;2022-11-20T12:18:58;17.25;;;2.97;;
39948;SDS011;29070;48.102;-1.652;2022-11-20T12:29:15;14.23;;;2.05;;
39948;SDS011;29070;48.102;-1.652;2022-11-20T12:34:32;16.13;;;2.60;;
39948;SDS011;29070;48.102;-1.652;2022-11-20T12:39:46;16.00;;;2.30;;
39948;SDS011;29070;48.102;-1.652;2022-11-20T12:45:10;24.40;;;3.90;;
39948;SDS011;29070;48.102;-1.652;2022-11-20T12:55:49;21.38;;;3.40;;
39948;SDS011;29070;48.102;-1.652;2022-11-20T13:06:43;19.35;;;3.00;;
39948;SDS011;29070;48.102;-1.652;2022-11-20T13:11:54;16.67;;;2.72;;
39948;SDS011;29070;48.102;-1.652;2022-11-20T13:17:04;17.75;;;3.63;;
39948;SDS011;29070;48.102;-1.652;2022-11-20T13:22:08;17.23;;;3.30;;
39948;SDS011;29070;48.102;-1.652;2022-11-20T13:37:23;12.73;;;2.50;;
39948;SDS011;29070;48.102;-1.652;2022-11-20T13:42:27;10.32;;;2.00;;
39948;SDS011;29070;48.102;-1.652;2022-11-20T13:47:28;9.77;;;2.05;;
39948;SDS011;29070;48.102;-1.652;2022-11-20T14:03:17;17.00;;;2.33;;
39948;SDS011;29070;48.102;-1.652;2022-11-20T14:08:24;11.98;;;2.25;;
39948;SDS011;29070;48.102;-1.652;2022-11-20T14:13:31;10.55;;;2.10;;
39948;SDS011;29070;48.102;-1.652;2022-11-20T14:18:31;12.68;;;2.63;;
39948;SDS011;29070;48.102;-1.652;2022-11-20T14:23:32;16.07;;;2.87;;
39948;SDS011;29070;48.102;-1.652;2022-11-20T14:28:32;13.27;;;1.60;;
39948;SDS011;29070;48.102;-1.652;2022-11-20T14:33:33;17.00;;;2.10;;
39948;SDS011;29070;48.102;-1.652;2022-11-20T14:38:33;15.07;;;2.63;;
39948;SDS011;29070;48.102;-1.652;2022-11-20T14:43:34;15.00;;;2.53;;
39948;SDS011;29070;48.102;-1.652;2022-11-20T14:48:43;18.98;;;2.88;;
39948;SDS011;29070;48.102;-1.652;2022-11-20T14:53:45;15.18;;;2.78;;
39948;SDS011;29070;48.102;-1.652;2022-11-20T14:58:45;15.63;;;2.60;;
39948;SDS011;29070;48.102;-1.652;2022-11-20T15:09:12;17.98;;;2.72;;
39948;SDS011;29070;48.102;-1.652;2022-11-20T15:14:14;13.20;;;2.90;;
39948;SDS011;29070;48.102;-1.652;2022-11-20T15:19:21;15.43;;;2.80;;
39948;SDS011;29070;48.102;-1.652;2022-11-20T15:24:23;10.38;;;2.70;;
39948;SDS011;29070;48.102;-1.652;2022-11-20T15:29:23;11.30;;;3.00;;
39948;SDS011;29070;48.102;-1.652;2022-11-20T15:34:26;15.25;;;3.00;;
39948;SDS011;29070;48.102;-1.652;2022-11-20T15:39:27;14.73;;;3.10;;
39948;SDS011;29070;48.102;-1.652;2022-11-20T15:44:27;11.93;;;2.87;;
39948;SDS011;29070;48.102;-1.652;2022-11-20T15:49:27;17.48;;;3.50;;
39948;SDS011;29070;48.102;-1.652;2022-11-20T15:54:28;16.77;;;3.70;;
39948;SDS011;29070;48.102;-1.652;2022-11-20T15:59:28;16.02;;;3.70;;
39948;SDS011;29070;48.102;-1.652;2022-11-20T16:04:28;22.80;;;4.40;;
39948;SDS011;29070;48.102;-1.652;2022-11-20T16:09:29;14.37;;;4.17;;
39948;SDS011;29070;48.102;-1.652;2022-11-20T16:14:29;14.18;;;3.40;;
39948;SDS011;29070;48.102;-1.652;2022-11-20T16:19:48;11.73;;;2.88;;
39948;SDS011;29070;48.102;-1.652;2022-11-20T16:24:49;20.53;;;4.00;;
39948;SDS011;29070;48.102;-1.652;2022-11-20T16:29:51;24.75;;;3.30;;
39948;SDS011;29070;48.102;-1.652;2022-11-20T16:34:51;10.20;;;2.67;;
39948;SDS011;29070;48.102;-1.652;2022-11-20T16:39:52;20.43;;;3.20;;
39948;SDS011;29070;48.102;-1.652;2022-11-20T16:44:52;13.80;;;3.70;;
39948;SDS011;29070;48.102;-1.652;2022-11-20T16:49:52;16.00;;;2.80;;
39948;SDS011;29070;48.102;-1.652;2022-11-20T16:54:53;12.83;;;3.17;;
39948;SDS011;29070;48.102;-1.652;2022-11-20T16:59:53;18.35;;;4.30;;
39948;SDS011;29070;48.102;-1.652;2022-11-20T17:04:54;16.50;;;5.28;;
39948;SDS011;29070;48.102;-1.652;2022-11-20T17:09:54;15.50;;;5.43;;
39948;SDS011;29070;48.102;-1.652;2022-11-20T17:14:54;11.80;;;4.80;;
39948;SDS011;29070;48.102;-1.652;2022-11-20T17:19:55;17.27;;;5.63;;
39948;SDS011;29070;48.102;-1.652;2022-11-20T17:24:55;14.20;;;3.67;;
39948;SDS011;29070;48.102;-1.652;2022-11-20T17:29:55;23.03;;;4.07;;
39948;SDS011;29070;48.102;-1.652;2022-11-20T17:34:57;9.73;;;4.47;;
39948;SDS011;29070;48.102;-1.652;2022-11-20T17:39:58;15.82;;;3.53;;
39948;SDS011;29070;48.102;-1.652;2022-11-20T17:44:59;14.40;;;3.97;;
39948;SDS011;29070;48.102;-1.652;2022-11-20T17:49:59;10.70;;;4.07;;
39948;SDS011;29070;48.102;-1.652;2022-11-20T17:54:59;10.93;;;3.63;;
39948;SDS011;29070;48.102;-1.652;2022-11-20T18:00:00;18.95;;;4.93;;
39948;SDS011;29070;48.102;-1.652;2022-11-20T18:05:00;15.83;;;3.93;;
39948;SDS011;29070;48.102;-1.652;2022-11-20T18:10:00;23.58;;;7.55;;
39948;SDS011;29070;48.102;-1.652;2022-11-20T18:15:01;20.33;;;5.00;;
39948;SDS011;29070;48.102;-1.652;2022-11-20T18:20:01;12.20;;;3.58;;
39948;SDS011;29070;48.102;-1.652;2022-11-20T18:25:02;22.70;;;4.32;;
39948;SDS011;29070;48.102;-1.652;2022-11-20T18:30:03;14.90;;;3.38;;
39948;SDS011;29070;48.102;-1.652;2022-11-20T18:35:06;13.40;;;3.20;;
39948;SDS011;29070;48.102;-1.652;2022-11-20T18:40:07;15.30;;;4.30;;
39948;SDS011;29070;48.102;-1.652;2022-11-20T18:45:08;13.77;;;3.80;;
39948;SDS011;29070;48.102;-1.652;2022-11-20T18:50:08;12.80;;;3.50;;
39948;SDS011;29070;48.102;-1.652;2022-11-20T18:55:09;12.90;;;3.83;;
39948;SDS011;29070;48.102;-1.652;2022-11-20T19:00:11;17.98;;;3.25;;
39948;SDS011;29070;48.102;-1.652;2022-11-20T19:05:12;17.30;;;3.40;;
39948;SDS011;29070;48.102;-1.652;2022-11-20T19:10:15;18.73;;;3.10;;
39948;SDS011;29070;48.102;-1.652;2022-11-20T19:15:20;19.27;;;4.45;;
39948;SDS011;29070;48.102;-1.652;2022-11-20T19:20:21;15.43;;;3.75;;
39948;SDS011;29070;48.102;-1.652;2022-11-20T19:25:22;18.50;;;4.00;;
39948;SDS011;29070;48.102;-1.652;2022-11-20T19:30:22;18.97;;;4.00;;
39948;SDS011;29070;48.102;-1.652;2022-11-20T19:35:23;21.83;;;6.43;;
39948;SDS011;29070;48.102;-1.652;2022-11-20T19:40:23;18.38;;;4.47;;
39948;SDS011;29070;48.102;-1.652;2022-11-20T19:45:24;16.58;;;4.43;;
39948;SDS011;29070;48.102;-1.652;2022-11-20T19:50:25;22.13;;;4.03;;
39948;SDS011;29070;48.102;-1.652;2022-11-20T19:55:25;14.00;;;3.07;;
39948;SDS011;29070;48.102;-1.652;2022-11-20T20:00:26;13.23;;;3.00;;
39948;SDS011;29070;48.102;-1.652;2022-11-20T20:05:26;17.35;;;3.45;;
39948;SDS011;29070;48.102;-1.652;2022-11-20T20:10:26;11.30;;;3.63;;
39948;SDS011;29070;48.102;-1.652;2022-11-20T20:15:27;13.30;;;3.60;;
39948;SDS011;29070;48.102;-1.652;2022-11-20T20:20:29;31.23;;;5.72;;
39948;SDS011;29070;48.102;-1.652;2022-11-20T20:25:29;25.38;;;7.22;;
39948;SDS011;29070;48.102;-1.652;2022-11-20T20:30:29;17.40;;;4.20;;
39948;SDS011;29070;48.102;-1.652;2022-11-20T20:35:30;15.93;;;3.50;;
39948;SDS011;29070;48.102;-1.652;2022-11-20T20:40:30;18.40;;;3.93;;
39948;SDS011;29070;48.102;-1.652;2022-11-20T20:45:31;15.27;;;4.33;;
39948;SDS011;29070;48.102;-1.652;2022-11-20T20:50:31;22.43;;;5.40;;
39948;SDS011;29070;48.102;-1.652;2022-11-20T20:55:31;14.43;;;4.17;;
39948;SDS011;29070;48.102;-1.652;2022-11-20T21:00:33;19.17;;;4.43;;
39948;SDS011;29070;48.102;-1.652;2022-11-20T21:05:33;11.90;;;3.07;;
39948;SDS011;29070;48.102;-1.652;2022-11-20T21:10:33;14.73;;;3.37;;
39948;SDS011;29070;48.102;-1.652;2022-11-20T21:15:37;15.25;;;3.10;;
39948;SDS011;29070;48.102;-1.652;2022-11-20T21:20:38;15.05;;;3.67;;
39948;SDS011;29070;48.102;-1.652;2022-11-20T21:26:00;14.00;;;3.65;;
39948;SDS011;29070;48.102;-1.652;2022-11-20T21:31:11;15.68;;;4.00;;
39948;SDS011;29070;48.102;-1.652;2022-11-20T21:36:15;17.52;;;3.35;;
39948;SDS011;29070;48.102;-1.652;2022-11-20T21:41:17;26.00;;;3.65;;
39948;SDS011;29070;48.102;-1.652;2022-11-20T21:46:17;12.68;;;3.65;;
39948;SDS011;29070;48.102;-1.652;2022-11-20T21:51:18;14.63;;;3.73;;
39948;SDS011;29070;48.102;-1.652;2022-11-20T21:56:22;13.88;;;3.28;;
39948;SDS011;29070;48.102;-1.652;2022-11-20T22:01:24;11.93;;;3.38;;
39948;SDS011;29070;48.102;-1.652;2022-11-20T22:06:29;15.88;;;3.67;;
39948;SDS011;29070;48.102;-1.652;2022-11-20T22:11:31;13.40;;;3.33;;
39948;SDS011;29070;48.102;-1.652;2022-11-20T22:16:32;14.93;;;3.73;;
39948;SDS011;29070;48.102;-1.652;2022-11-20T22:21:34;14.60;;;4.10;;
39948;SDS011;29070;48.102;-1.652;2022-11-20T22:26:35;15.80;;;2.90;;
39948;SDS011;29070;48.102;-1.652;2022-11-20T22:31:35;13.63;;;3.08;;
39948;SDS011;29070;48.102;-1.652;2022-11-20T22:36:35;13.93;;;3.20;;
39948;SDS011;29070;48.102;-1.652;2022-11-20T22:41:36;13.52;;;2.95;;
39948;SDS011;29070;48.102;-1.652;2022-11-20T22:46:37;14.40;;;3.53;;
39948;SDS011;29070;48.102;-1.652;2022-11-20T22:51:38;17.90;;;3.42;;
39948;SDS011;29070;48.102;-1.652;2022-11-20T22:56:39;20.55;;;4.22;;
39948;SDS011;29070;48.102;-1.652;2022-11-20T23:01:40;10.73;;;3.10;;
39948;SDS011;29070;48.102;-1.652;2022-11-20T23:06:40;18.33;;;4.27;;
39948;SDS011;29070;48.102;-1.652;2022-11-20T23:11:41;19.47;;;4.17;;
39948;SDS011;29070;48.102;-1.652;2022-11-20T23:16:41;16.43;;;3.97;;
39948;SDS011;29070;48.102;-1.652;2022-11-20T23:21:42;14.93;;;4.10;;
39948;SDS011;29070;48.102;-1.652;2022-11-20T23:26:42;12.05;;;3.85;;
39948;SDS011;29070;48.102;-1.652;2022-11-20T23:31:44;14.73;;;3.90;;
39948;SDS011;29070;48.102;-1.652;2022-11-20T23:36:44;15.33;;;4.50;;
39948;SDS011;29070;48.102;-1.652;2022-11-20T23:41:44;25.03;;;3.70;;
39948;SDS011;29070;48.102;-1.652;2022-11-20T23:46:45;12.93;;;3.60;;
39948;SDS011;29070;48.102;-1.652;2022-11-20T23:51:45;12.67;;;3.80;;
39948;SDS011;29070;48.102;-1.652;2022-11-20T23:56:45;18.50;;;3.73;;
